sensor_id;sensor_type;location;lat;lon;timestamp;temperature;humidity
34099;DHT22;20374;49.474;10.944;2024-02-16T00:01:38;8.00;99.90
34099;DHT22;20374;49.474;10.944;2024-02-16T00:04:04;8.00;99.90
34099;DHT22;20374;49.474;10.944;2024-02-16T00:06:30;8.00;99.90
34099;DHT22;20374;49.474;10.944;2024-02-16T00:08:56;8.10;99.90
34099;DHT22;20374;49.474;10.944;2024-02-16T00:11:22;8.10;99.90
34099;DHT22;20374;49.474;10.944;2024-02-16T00:13:48;8.00;99.90
34099;DHT22;20374;49.474;10.944;2024-02-16T00:16:14;8.10;99.90
34099;DHT22;20374;49.474;10.944;2024-02-16T00:18:40;8.10;99.90
34099;DHT22;20374;49.474;10.944;2024-02-16T00:21:06;8.10;99.90
34099;DHT22;20374;49.474;10.944;2024-02-16T00:23:32;8.10;99.90
34099;DHT22;20374;49.474;10.944;2024-02-16T00:26:00;8.20;99.90
34099;DHT22;20374;49.474;10.944;2024-02-16T00:28:26;8.20;99.90
34099;DHT22;20374;49.474;10.944;2024-02-16T00:30:52;8.20;99.90
34099;DHT22;20374;49.474;10.944;2024-02-16T00:33:18;8.20;99.90
34099;DHT22;20374;49.474;10.944;2024-02-16T00:35:44;8.20;99.90
34099;DHT22;20374;49.474;10.944;2024-02-16T00:38:13;8.10;99.90
34099;DHT22;20374;49.474;10.944;2024-02-16T00:40:39;8.10;99.90
34099;DHT22;20374;49.474;10.944;2024-02-16T00:43:10;8.10;99.90
34099;DHT22;20374;49.474;10.944;2024-02-16T00:45:38;8.00;99.90
34099;DHT22;20374;49.474;10.944;2024-02-16T00:48:04;8.10;99.90
34099;DHT22;20374;49.474;10.944;2024-02-16T00:50:32;8.20;99.90
34099;DHT22;20374;49.474;10.944;2024-02-16T00:52:58;8.20;99.90
34099;DHT22;20374;49.474;10.944;2024-02-16T00:55:25;8.20;99.90
34099;DHT22;20374;49.474;10.944;2024-02-16T00:57:51;8.10;99.90
34099;DHT22;20374;49.474;10.944;2024-02-16T01:00:17;8.00;99.90
34099;DHT22;20374;49.474;10.944;2024-02-16T01:02:45;8.00;99.90
34099;DHT22;20374;49.474;10.944;2024-02-16T01:05:11;7.90;99.90
34099;DHT22;20374;49.474;10.944;2024-02-16T01:07:38;8.00;99.90
34099;DHT22;20374;49.474;10.944;2024-02-16T01:10:05;8.00;99.90
34099;DHT22;20374;49.474;10.944;2024-02-16T01:12:40;8.00;99.90
34099;DHT22;20374;49.474;10.944;2024-02-16T01:15:06;8.00;99.90
34099;DHT22;20374;49.474;10.944;2024-02-16T01:17:35;8.00;99.90
34099;DHT22;20374;49.474;10.944;2024-02-16T01:20:01;8.10;99.90
34099;DHT22;20374;49.474;10.944;2024-02-16T01:22:27;8.00;99.90
34099;DHT22;20374;49.474;10.944;2024-02-16T01:24:55;8.10;99.90
34099;DHT22;20374;49.474;10.944;2024-02-16T01:27:21;8.10;99.90
34099;DHT22;20374;49.474;10.944;2024-02-16T01:29:47;8.10;99.90
34099;DHT22;20374;49.474;10.944;2024-02-16T01:32:13;8.00;99.90
34099;DHT22;20374;49.474;10.944;2024-02-16T01:34:39;8.00;99.90
34099;DHT22;20374;49.474;10.944;2024-02-16T01:37:05;7.90;99.90
34099;DHT22;20374;49.474;10.944;2024-02-16T01:39:34;7.90;99.90
34099;DHT22;20374;49.474;10.944;2024-02-16T01:42:03;7.80;99.90
34099;DHT22;20374;49.474;10.944;2024-02-16T01:44:29;7.80;99.90
34099;DHT22;20374;49.474;10.944;2024-02-16T01:46:55;7.80;99.90
34099;DHT22;20374;49.474;10.944;2024-02-16T01:49:21;7.80;99.90
34099;DHT22;20374;49.474;10.944;2024-02-16T01:51:47;7.80;99.90
34099;DHT22;20374;49.474;10.944;2024-02-16T01:54:14;7.80;99.90
34099;DHT22;20374;49.474;10.944;2024-02-16T01:56:44;7.80;99.90
34099;DHT22;20374;49.474;10.944;2024-02-16T01:59:10;7.80;99.90
34099;DHT22;20374;49.474;10.944;2024-02-16T02:01:36;7.70;99.90
34099;DHT22;20374;49.474;10.944;2024-02-16T02:04:02;7.70;99.90
34099;DHT22;20374;49.474;10.944;2024-02-16T02:06:28;7.70;99.90
34099;DHT22;20374;49.474;10.944;2024-02-16T02:08:54;7.80;99.90
34099;DHT22;20374;49.474;10.944;2024-02-16T02:11:20;7.90;99.90
34099;DHT22;20374;49.474;10.944;2024-02-16T02:13:46;7.90;99.90
34099;DHT22;20374;49.474;10.944;2024-02-16T02:16:12;7.80;99.90
34099;DHT22;20374;49.474;10.944;2024-02-16T02:18:39;7.80;99.90
34099;DHT22;20374;49.474;10.944;2024-02-16T02:21:04;7.70;99.90
34099;DHT22;20374;49.474;10.944;2024-02-16T02:23:36;7.80;99.90
34099;DHT22;20374;49.474;10.944;2024-02-16T02:26:02;7.70;99.90
34099;DHT22;20374;49.474;10.944;2024-02-16T02:28:28;7.70;99.90
34099;DHT22;20374;49.474;10.944;2024-02-16T02:30:55;7.60;99.90
34099;DHT22;20374;49.474;10.944;2024-02-16T02:33:21;7.60;99.90
34099;DHT22;20374;49.474;10.944;2024-02-16T02:35:47;7.60;99.90
34099;DHT22;20374;49.474;10.944;2024-02-16T02:38:13;7.70;99.90
34099;DHT22;20374;49.474;10.944;2024-02-16T02:40:39;7.70;99.90
34099;DHT22;20374;49.474;10.944;2024-02-16T02:43:05;7.80;99.90
34099;DHT22;20374;49.474;10.944;2024-02-16T02:45:42;7.80;99.90
34099;DHT22;20374;49.474;10.944;2024-02-16T02:48:08;7.80;99.90
34099;DHT22;20374;49.474;10.944;2024-02-16T02:50:34;7.80;99.90
34099;DHT22;20374;49.474;10.944;2024-02-16T02:53:00;7.70;99.90
34099;DHT22;20374;49.474;10.944;2024-02-16T02:55:26;7.80;99.90
34099;DHT22;20374;49.474;10.944;2024-02-16T02:57:52;7.80;99.90
34099;DHT22;20374;49.474;10.944;2024-02-16T03:00:18;7.70;99.90
34099;DHT22;20374;49.474;10.944;2024-02-16T03:02:44;7.70;99.90
34099;DHT22;20374;49.474;10.944;2024-02-16T03:05:10;7.70;99.90
34099;DHT22;20374;49.474;10.944;2024-02-16T03:07:37;7.70;99.90
34099;DHT22;20374;49.474;10.944;2024-02-16T03:10:04;7.60;99.90
34099;DHT22;20374;49.474;10.944;2024-02-16T03:12:31;7.60;99.90
34099;DHT22;20374;49.474;10.944;2024-02-16T03:14:57;7.70;99.90
34099;DHT22;20374;49.474;10.944;2024-02-16T03:17:23;7.60;99.90
34099;DHT22;20374;49.474;10.944;2024-02-16T03:19:49;7.60;99.90
34099;DHT22;20374;49.474;10.944;2024-02-16T03:22:15;7.70;99.90
34099;DHT22;20374;49.474;10.944;2024-02-16T03:24:41;7.70;99.90
34099;DHT22;20374;49.474;10.944;2024-02-16T03:27:07;7.80;99.90
34099;DHT22;20374;49.474;10.944;2024-02-16T03:29:36;7.80;99.90
34099;DHT22;20374;49.474;10.944;2024-02-16T03:32:02;7.80;99.90
34099;DHT22;20374;49.474;10.944;2024-02-16T03:34:28;7.80;99.90
34099;DHT22;20374;49.474;10.944;2024-02-16T03:36:54;7.80;99.90
34099;DHT22;20374;49.474;10.944;2024-02-16T03:39:19;7.70;99.90
34099;DHT22;20374;49.474;10.944;2024-02-16T03:41:46;7.70;99.90
34099;DHT22;20374;49.474;10.944;2024-02-16T03:44:15;7.70;99.90
34099;DHT22;20374;49.474;10.944;2024-02-16T03:46:42;7.70;99.90
34099;DHT22;20374;49.474;10.944;2024-02-16T03:49:09;7.70;99.90
34099;DHT22;20374;49.474;10.944;2024-02-16T03:51:41;7.70;99.90
34099;DHT22;20374;49.474;10.944;2024-02-16T03:54:07;7.80;99.90
34099;DHT22;20374;49.474;10.944;2024-02-16T03:56:34;7.80;99.90
34099;DHT22;20374;49.474;10.944;2024-02-16T03:59:01;7.80;99.90
34099;DHT22;20374;49.474;10.944;2024-02-16T04:01:27;7.90;99.90
34099;DHT22;20374;49.474;10.944;2024-02-16T04:03:53;7.90;99.90
34099;DHT22;20374;49.474;10.944;2024-02-16T04:06:19;7.90;99.90
34099;DHT22;20374;49.474;10.944;2024-02-16T04:08:45;7.90;99.90
34099;DHT22;20374;49.474;10.944;2024-02-16T04:11:12;7.90;99.90
34099;DHT22;20374;49.474;10.944;2024-02-16T04:13:38;7.90;99.90
34099;DHT22;20374;49.474;10.944;2024-02-16T04:16:05;8.00;99.90
34099;DHT22;20374;49.474;10.944;2024-02-16T04:18:31;7.90;99.90
34099;DHT22;20374;49.474;10.944;2024-02-16T04:20:57;7.90;99.90
34099;DHT22;20374;49.474;10.944;2024-02-16T04:23:25;7.90;99.90
34099;DHT22;20374;49.474;10.944;2024-02-16T04:25:51;7.90;99.90
34099;DHT22;20374;49.474;10.944;2024-02-16T04:28:17;7.90;99.90
34099;DHT22;20374;49.474;10.944;2024-02-16T04:30:44;8.10;99.90
34099;DHT22;20374;49.474;10.944;2024-02-16T04:33:10;8.00;99.90
34099;DHT22;20374;49.474;10.944;2024-02-16T04:35:36;8.00;99.90
34099;DHT22;20374;49.474;10.944;2024-02-16T04:38:02;7.90;99.90
34099;DHT22;20374;49.474;10.944;2024-02-16T04:40:28;8.00;99.90
34099;DHT22;20374;49.474;10.944;2024-02-16T04:42:54;8.00;99.90
34099;DHT22;20374;49.474;10.944;2024-02-16T04:45:20;7.90;99.90
34099;DHT22;20374;49.474;10.944;2024-02-16T04:47:46;8.10;99.90
34099;DHT22;20374;49.474;10.944;2024-02-16T04:50:12;8.10;99.90
34099;DHT22;20374;49.474;10.944;2024-02-16T04:52:39;8.10;99.90
34099;DHT22;20374;49.474;10.944;2024-02-16T04:55:06;8.10;99.90
34099;DHT22;20374;49.474;10.944;2024-02-16T04:57:35;8.00;99.90
34099;DHT22;20374;49.474;10.944;2024-02-16T05:00:01;8.10;99.90
34099;DHT22;20374;49.474;10.944;2024-02-16T05:02:27;8.00;99.90
34099;DHT22;20374;49.474;10.944;2024-02-16T05:04:53;8.00;99.90
34099;DHT22;20374;49.474;10.944;2024-02-16T05:07:20;8.00;99.90
34099;DHT22;20374;49.474;10.944;2024-02-16T05:09:46;8.00;99.90
34099;DHT22;20374;49.474;10.944;2024-02-16T05:12:12;8.00;99.90
34099;DHT22;20374;49.474;10.944;2024-02-16T05:14:38;8.00;99.90
34099;DHT22;20374;49.474;10.944;2024-02-16T05:17:04;8.00;99.90
34099;DHT22;20374;49.474;10.944;2024-02-16T05:19:33;8.00;99.90
34099;DHT22;20374;49.474;10.944;2024-02-16T05:22:00;8.00;99.90
34099;DHT22;20374;49.474;10.944;2024-02-16T05:24:26;8.00;99.90
34099;DHT22;20374;49.474;10.944;2024-02-16T05:26:52;8.00;99.90
34099;DHT22;20374;49.474;10.944;2024-02-16T05:29:18;8.00;99.90
34099;DHT22;20374;49.474;10.944;2024-02-16T05:31:44;8.10;99.90
34099;DHT22;20374;49.474;10.944;2024-02-16T05:34:10;8.10;99.90
34099;DHT22;20374;49.474;10.944;2024-02-16T05:36:36;8.00;99.90
34099;DHT22;20374;49.474;10.944;2024-02-16T05:39:02;8.00;99.90
34099;DHT22;20374;49.474;10.944;2024-02-16T05:41:55;8.00;99.90
34099;DHT22;20374;49.474;10.944;2024-02-16T05:44:21;8.00;99.90
34099;DHT22;20374;49.474;10.944;2024-02-16T05:46:47;7.90;99.90
34099;DHT22;20374;49.474;10.944;2024-02-16T05:49:14;7.90;99.90
34099;DHT22;20374;49.474;10.944;2024-02-16T05:51:41;7.90;99.90
34099;DHT22;20374;49.474;10.944;2024-02-16T05:54:08;7.80;99.90
34099;DHT22;20374;49.474;10.944;2024-02-16T05:56:34;7.80;99.90
34099;DHT22;20374;49.474;10.944;2024-02-16T05:59:03;7.80;99.90
34099;DHT22;20374;49.474;10.944;2024-02-16T06:01:31;7.90;99.90
34099;DHT22;20374;49.474;10.944;2024-02-16T06:03:58;7.90;99.90
34099;DHT22;20374;49.474;10.944;2024-02-16T06:06:24;8.00;99.90
34099;DHT22;20374;49.474;10.944;2024-02-16T06:08:50;8.00;99.90
34099;DHT22;20374;49.474;10.944;2024-02-16T06:11:16;7.90;99.90
34099;DHT22;20374;49.474;10.944;2024-02-16T06:13:42;7.90;99.90
34099;DHT22;20374;49.474;10.944;2024-02-16T06:16:08;7.90;99.90
34099;DHT22;20374;49.474;10.944;2024-02-16T06:18:35;7.90;99.90
34099;DHT22;20374;49.474;10.944;2024-02-16T06:21:01;7.90;99.90
34099;DHT22;20374;49.474;10.944;2024-02-16T06:23:27;7.90;99.90
34099;DHT22;20374;49.474;10.944;2024-02-16T06:25:53;7.90;99.90
34099;DHT22;20374;49.474;10.944;2024-02-16T06:28:19;7.90;99.90
34099;DHT22;20374;49.474;10.944;2024-02-16T06:30:45;7.90;99.90
34099;DHT22;20374;49.474;10.944;2024-02-16T06:33:11;7.80;99.90
34099;DHT22;20374;49.474;10.944;2024-02-16T06:35:37;7.90;99.90
34099;DHT22;20374;49.474;10.944;2024-02-16T06:38:04;7.90;99.90
34099;DHT22;20374;49.474;10.944;2024-02-16T06:40:29;8.00;99.90
34099;DHT22;20374;49.474;10.944;2024-02-16T06:42:55;8.00;99.90
34099;DHT22;20374;49.474;10.944;2024-02-16T06:45:22;8.00;99.90
34099;DHT22;20374;49.474;10.944;2024-02-16T06:47:48;8.00;99.90
34099;DHT22;20374;49.474;10.944;2024-02-16T06:50:16;8.00;99.90
34099;DHT22;20374;49.474;10.944;2024-02-16T06:52:42;8.10;99.90
34099;DHT22;20374;49.474;10.944;2024-02-16T06:55:08;8.00;99.90
34099;DHT22;20374;49.474;10.944;2024-02-16T06:57:34;8.10;99.90
34099;DHT22;20374;49.474;10.944;2024-02-16T07:00:00;8.10;99.90
34099;DHT22;20374;49.474;10.944;2024-02-16T07:02:28;8.20;99.90
34099;DHT22;20374;49.474;10.944;2024-02-16T07:04:54;8.20;99.90
34099;DHT22;20374;49.474;10.944;2024-02-16T07:07:20;8.30;99.90
34099;DHT22;20374;49.474;10.944;2024-02-16T07:09:46;8.40;99.90
34099;DHT22;20374;49.474;10.944;2024-02-16T07:12:12;8.40;99.90
34099;DHT22;20374;49.474;10.944;2024-02-16T07:14:38;8.40;99.90
34099;DHT22;20374;49.474;10.944;2024-02-16T07:17:05;8.50;99.90
34099;DHT22;20374;49.474;10.944;2024-02-16T07:19:35;8.50;99.90
34099;DHT22;20374;49.474;10.944;2024-02-16T07:22:02;8.60;99.90
34099;DHT22;20374;49.474;10.944;2024-02-16T07:24:28;8.60;99.90
34099;DHT22;20374;49.474;10.944;2024-02-16T07:26:54;8.60;99.90
34099;DHT22;20374;49.474;10.944;2024-02-16T07:29:20;8.70;99.90
34099;DHT22;20374;49.474;10.944;2024-02-16T07:31:46;8.70;99.90
34099;DHT22;20374;49.474;10.944;2024-02-16T07:34:12;8.90;99.90
34099;DHT22;20374;49.474;10.944;2024-02-16T07:36:38;9.10;99.90
34099;DHT22;20374;49.474;10.944;2024-02-16T07:39:04;9.60;99.90
34099;DHT22;20374;49.474;10.944;2024-02-16T07:41:38;10.10;99.90
34099;DHT22;20374;49.474;10.944;2024-02-16T07:44:12;10.50;99.90
34099;DHT22;20374;49.474;10.944;2024-02-16T07:46:58;11.10;99.90
34099;DHT22;20374;49.474;10.944;2024-02-16T07:53:07;11.50;99.90
34099;DHT22;20374;49.474;10.944;2024-02-16T07:57:08;11.50;99.90
34099;DHT22;20374;49.474;10.944;2024-02-16T07:59:58;11.30;99.90
34099;DHT22;20374;49.474;10.944;2024-02-16T08:02:24;10.90;99.90
34099;DHT22;20374;49.474;10.944;2024-02-16T08:04:53;10.80;99.90
34099;DHT22;20374;49.474;10.944;2024-02-16T08:07:20;10.90;99.90
34099;DHT22;20374;49.474;10.944;2024-02-16T08:13:08;10.60;99.90
34099;DHT22;20374;49.474;10.944;2024-02-16T08:22:30;10.40;99.90
34099;DHT22;20374;49.474;10.944;2024-02-16T08:24:58;10.40;99.90
34099;DHT22;20374;49.474;10.944;2024-02-16T08:27:28;10.40;99.90
34099;DHT22;20374;49.474;10.944;2024-02-16T08:30:03;10.40;99.90
34099;DHT22;20374;49.474;10.944;2024-02-16T08:33:06;10.50;99.90
34099;DHT22;20374;49.474;10.944;2024-02-16T08:36:46;10.60;99.90
34099;DHT22;20374;49.474;10.944;2024-02-16T08:45:19;10.60;99.90
34099;DHT22;20374;49.474;10.944;2024-02-16T08:47:45;10.50;99.90
34099;DHT22;20374;49.474;10.944;2024-02-16T08:50:20;10.50;99.90
34099;DHT22;20374;49.474;10.944;2024-02-16T08:52:50;10.50;99.90
34099;DHT22;20374;49.474;10.944;2024-02-16T08:56:08;10.70;99.90
34099;DHT22;20374;49.474;10.944;2024-02-16T08:58:57;10.70;99.90
34099;DHT22;20374;49.474;10.944;2024-02-16T09:01:43;10.70;99.90
34099;DHT22;20374;49.474;10.944;2024-02-16T09:04:31;10.80;99.90
34099;DHT22;20374;49.474;10.944;2024-02-16T09:06:57;10.90;99.90
34099;DHT22;20374;49.474;10.944;2024-02-16T09:09:23;10.90;99.90
34099;DHT22;20374;49.474;10.944;2024-02-16T09:11:49;11.10;99.90
34099;DHT22;20374;49.474;10.944;2024-02-16T09:14:15;11.30;99.90
34099;DHT22;20374;49.474;10.944;2024-02-16T09:16:41;11.30;99.90
34099;DHT22;20374;49.474;10.944;2024-02-16T09:19:07;11.40;99.90
34099;DHT22;20374;49.474;10.944;2024-02-16T09:21:34;11.50;99.90
34099;DHT22;20374;49.474;10.944;2024-02-16T09:24:03;11.60;99.90
34099;DHT22;20374;49.474;10.944;2024-02-16T09:26:36;11.70;99.90
34099;DHT22;20374;49.474;10.944;2024-02-16T09:29:05;11.90;99.90
34099;DHT22;20374;49.474;10.944;2024-02-16T09:31:35;12.00;99.90
34099;DHT22;20374;49.474;10.944;2024-02-16T09:34:01;12.00;99.90
34099;DHT22;20374;49.474;10.944;2024-02-16T09:36:28;12.00;99.90
34099;DHT22;20374;49.474;10.944;2024-02-16T09:38:54;12.00;99.90
34099;DHT22;20374;49.474;10.944;2024-02-16T09:41:20;12.00;99.90
34099;DHT22;20374;49.474;10.944;2024-02-16T09:43:46;12.00;99.90
34099;DHT22;20374;49.474;10.944;2024-02-16T09:46:12;11.80;99.90
34099;DHT22;20374;49.474;10.944;2024-02-16T09:48:40;11.80;99.90
34099;DHT22;20374;49.474;10.944;2024-02-16T09:51:06;11.70;99.90
34099;DHT22;20374;49.474;10.944;2024-02-16T09:53:49;11.80;99.90
34099;DHT22;20374;49.474;10.944;2024-02-16T09:56:17;11.70;99.90
34099;DHT22;20374;49.474;10.944;2024-02-16T09:58:43;11.80;99.90
34099;DHT22;20374;49.474;10.944;2024-02-16T10:01:20;11.80;99.90
34099;DHT22;20374;49.474;10.944;2024-02-16T10:03:47;11.80;99.90
34099;DHT22;20374;49.474;10.944;2024-02-16T10:06:13;11.90;99.90
34099;DHT22;20374;49.474;10.944;2024-02-16T10:09:07;11.80;99.90
34099;DHT22;20374;49.474;10.944;2024-02-16T10:11:44;11.90;99.90
34099;DHT22;20374;49.474;10.944;2024-02-16T10:14:10;12.10;99.90
34099;DHT22;20374;49.474;10.944;2024-02-16T10:16:37;12.30;99.90
34099;DHT22;20374;49.474;10.944;2024-02-16T10:19:07;12.50;99.90
34099;DHT22;20374;49.474;10.944;2024-02-16T10:21:39;12.60;99.90
34099;DHT22;20374;49.474;10.944;2024-02-16T10:24:10;12.60;99.90
34099;DHT22;20374;49.474;10.944;2024-02-16T10:26:37;12.70;99.90
34099;DHT22;20374;49.474;10.944;2024-02-16T10:29:05;12.80;99.90
34099;DHT22;20374;49.474;10.944;2024-02-16T10:31:32;12.80;99.90
34099;DHT22;20374;49.474;10.944;2024-02-16T10:34:03;12.80;99.90
34099;DHT22;20374;49.474;10.944;2024-02-16T10:36:36;12.80;99.90
34099;DHT22;20374;49.474;10.944;2024-02-16T10:39:04;12.70;99.90
34099;DHT22;20374;49.474;10.944;2024-02-16T10:41:38;12.70;99.90
34099;DHT22;20374;49.474;10.944;2024-02-16T10:44:05;12.80;99.90
34099;DHT22;20374;49.474;10.944;2024-02-16T10:46:35;12.70;99.90
34099;DHT22;20374;49.474;10.944;2024-02-16T10:49:01;12.70;99.90
34099;DHT22;20374;49.474;10.944;2024-02-16T10:51:49;12.60;99.90
34099;DHT22;20374;49.474;10.944;2024-02-16T10:54:23;12.50;99.90
34099;DHT22;20374;49.474;10.944;2024-02-16T10:56:53;12.60;99.90
34099;DHT22;20374;49.474;10.944;2024-02-16T10:59:19;12.50;99.90
34099;DHT22;20374;49.474;10.944;2024-02-16T11:01:45;12.50;99.90
34099;DHT22;20374;49.474;10.944;2024-02-16T11:04:18;12.60;99.90
34099;DHT22;20374;49.474;10.944;2024-02-16T11:09:22;12.60;99.90
34099;DHT22;20374;49.474;10.944;2024-02-16T11:11:58;12.60;99.90
34099;DHT22;20374;49.474;10.944;2024-02-16T11:14:43;12.60;99.90
34099;DHT22;20374;49.474;10.944;2024-02-16T11:19:36;12.50;99.90
34099;DHT22;20374;49.474;10.944;2024-02-16T11:22:08;12.50;99.90
34099;DHT22;20374;49.474;10.944;2024-02-16T11:24:35;12.50;99.90
34099;DHT22;20374;49.474;10.944;2024-02-16T11:27:06;12.50;99.90
34099;DHT22;20374;49.474;10.944;2024-02-16T11:29:35;12.40;99.90
34099;DHT22;20374;49.474;10.944;2024-02-16T11:32:02;12.50;99.90
34099;DHT22;20374;49.474;10.944;2024-02-16T11:34:29;12.50;99.90
34099;DHT22;20374;49.474;10.944;2024-02-16T11:36:56;12.60;99.90
34099;DHT22;20374;49.474;10.944;2024-02-16T11:39:22;12.70;99.90
34099;DHT22;20374;49.474;10.944;2024-02-16T11:41:59;12.90;99.90
34099;DHT22;20374;49.474;10.944;2024-02-16T11:44:31;12.90;99.90
34099;DHT22;20374;49.474;10.944;2024-02-16T11:47:01;13.00;99.90
34099;DHT22;20374;49.474;10.944;2024-02-16T11:49:32;12.90;99.90
34099;DHT22;20374;49.474;10.944;2024-02-16T11:52:05;13.00;99.90
34099;DHT22;20374;49.474;10.944;2024-02-16T11:54:32;13.00;99.90
34099;DHT22;20374;49.474;10.944;2024-02-16T11:56:58;13.10;99.90
34099;DHT22;20374;49.474;10.944;2024-02-16T11:59:24;13.20;99.90
34099;DHT22;20374;49.474;10.944;2024-02-16T12:01:55;13.30;99.90
34099;DHT22;20374;49.474;10.944;2024-02-16T12:04:22;13.30;99.90
34099;DHT22;20374;49.474;10.944;2024-02-16T12:06:59;13.10;99.90
34099;DHT22;20374;49.474;10.944;2024-02-16T12:09:26;13.10;99.90
34099;DHT22;20374;49.474;10.944;2024-02-16T12:11:54;13.00;99.90
34099;DHT22;20374;49.474;10.944;2024-02-16T12:14:23;13.10;99.90
34099;DHT22;20374;49.474;10.944;2024-02-16T12:16:51;13.20;99.90
34099;DHT22;20374;49.474;10.944;2024-02-16T12:19:18;13.10;99.90
34099;DHT22;20374;49.474;10.944;2024-02-16T12:21:49;13.20;99.90
34099;DHT22;20374;49.474;10.944;2024-02-16T12:24:15;13.30;99.90
34099;DHT22;20374;49.474;10.944;2024-02-16T12:26:41;13.30;99.90
34099;DHT22;20374;49.474;10.944;2024-02-16T12:29:07;13.40;99.90
34099;DHT22;20374;49.474;10.944;2024-02-16T12:31:39;13.40;99.90
34099;DHT22;20374;49.474;10.944;2024-02-16T12:34:06;13.50;99.90
34099;DHT22;20374;49.474;10.944;2024-02-16T12:36:34;13.50;99.90
34099;DHT22;20374;49.474;10.944;2024-02-16T12:39:01;13.60;99.90
34099;DHT22;20374;49.474;10.944;2024-02-16T12:41:30;13.40;99.90
34099;DHT22;20374;49.474;10.944;2024-02-16T12:44:01;13.70;99.90
34099;DHT22;20374;49.474;10.944;2024-02-16T12:46:27;13.70;99.90
34099;DHT22;20374;49.474;10.944;2024-02-16T12:48:54;13.80;99.90
34099;DHT22;20374;49.474;10.944;2024-02-16T12:51:20;13.90;99.90
34099;DHT22;20374;49.474;10.944;2024-02-16T12:53:46;13.80;99.90
34099;DHT22;20374;49.474;10.944;2024-02-16T12:56:12;13.80;99.90
34099;DHT22;20374;49.474;10.944;2024-02-16T12:58:38;13.70;99.90
34099;DHT22;20374;49.474;10.944;2024-02-16T13:01:05;13.90;99.90
34099;DHT22;20374;49.474;10.944;2024-02-16T13:03:41;13.90;99.90
34099;DHT22;20374;49.474;10.944;2024-02-16T13:06:07;14.00;99.90
34099;DHT22;20374;49.474;10.944;2024-02-16T13:08:33;14.10;99.90
34099;DHT22;20374;49.474;10.944;2024-02-16T13:11:00;14.20;99.90
34099;DHT22;20374;49.474;10.944;2024-02-16T13:13:26;14.40;99.90
34099;DHT22;20374;49.474;10.944;2024-02-16T13:15:52;14.40;99.90
34099;DHT22;20374;49.474;10.944;2024-02-16T13:18:18;14.40;99.90
34099;DHT22;20374;49.474;10.944;2024-02-16T13:20:44;14.50;99.90
34099;DHT22;20374;49.474;10.944;2024-02-16T13:23:10;14.60;99.90
34099;DHT22;20374;49.474;10.944;2024-02-16T13:25:37;14.60;99.90
34099;DHT22;20374;49.474;10.944;2024-02-16T13:28:03;14.60;99.90
34099;DHT22;20374;49.474;10.944;2024-02-16T13:30:30;14.50;99.90
34099;DHT22;20374;49.474;10.944;2024-02-16T13:32:56;14.50;99.90
34099;DHT22;20374;49.474;10.944;2024-02-16T13:35:23;14.40;99.90
34099;DHT22;20374;49.474;10.944;2024-02-16T13:37:49;14.40;99.90
34099;DHT22;20374;49.474;10.944;2024-02-16T13:40:15;14.40;99.90
34099;DHT22;20374;49.474;10.944;2024-02-16T13:42:43;14.40;99.90
34099;DHT22;20374;49.474;10.944;2024-02-16T13:45:09;14.40;99.90
34099;DHT22;20374;49.474;10.944;2024-02-16T13:47:37;14.40;99.90
34099;DHT22;20374;49.474;10.944;2024-02-16T13:50:08;14.50;99.90
34099;DHT22;20374;49.474;10.944;2024-02-16T13:52:37;14.50;99.90
34099;DHT22;20374;49.474;10.944;2024-02-16T13:55:04;14.50;99.90
34099;DHT22;20374;49.474;10.944;2024-02-16T13:57:32;14.60;99.90
34099;DHT22;20374;49.474;10.944;2024-02-16T14:00:03;14.80;99.90
34099;DHT22;20374;49.474;10.944;2024-02-16T14:02:38;14.90;99.90
34099;DHT22;20374;49.474;10.944;2024-02-16T14:05:05;14.80;99.90
34099;DHT22;20374;49.474;10.944;2024-02-16T14:07:31;14.80;99.90
34099;DHT22;20374;49.474;10.944;2024-02-16T14:10:03;14.80;99.90
34099;DHT22;20374;49.474;10.944;2024-02-16T14:12:29;14.60;99.90
34099;DHT22;20374;49.474;10.944;2024-02-16T14:14:55;14.70;99.90
34099;DHT22;20374;49.474;10.944;2024-02-16T14:17:21;14.70;99.90
34099;DHT22;20374;49.474;10.944;2024-02-16T14:19:47;14.70;99.90
34099;DHT22;20374;49.474;10.944;2024-02-16T14:22:13;14.90;99.90
34099;DHT22;20374;49.474;10.944;2024-02-16T14:24:39;15.10;99.90
34099;DHT22;20374;49.474;10.944;2024-02-16T14:27:05;15.00;99.90
34099;DHT22;20374;49.474;10.944;2024-02-16T14:29:31;15.10;99.90
34099;DHT22;20374;49.474;10.944;2024-02-16T14:31:58;15.00;99.90
34099;DHT22;20374;49.474;10.944;2024-02-16T14:34:24;14.80;99.90
34099;DHT22;20374;49.474;10.944;2024-02-16T14:36:50;14.80;99.90
34099;DHT22;20374;49.474;10.944;2024-02-16T14:39:16;14.70;99.90
34099;DHT22;20374;49.474;10.944;2024-02-16T14:41:42;14.70;99.90
34099;DHT22;20374;49.474;10.944;2024-02-16T14:44:09;14.70;99.90
34099;DHT22;20374;49.474;10.944;2024-02-16T14:46:36;14.60;99.90
34099;DHT22;20374;49.474;10.944;2024-02-16T14:49:02;14.60;99.90
34099;DHT22;20374;49.474;10.944;2024-02-16T14:51:28;14.70;99.90
34099;DHT22;20374;49.474;10.944;2024-02-16T14:53:54;14.70;99.90
34099;DHT22;20374;49.474;10.944;2024-02-16T14:56:20;14.60;99.90
34099;DHT22;20374;49.474;10.944;2024-02-16T14:58:47;14.50;99.90
34099;DHT22;20374;49.474;10.944;2024-02-16T15:01:13;14.50;99.90
34099;DHT22;20374;49.474;10.944;2024-02-16T15:03:39;14.40;99.90
34099;DHT22;20374;49.474;10.944;2024-02-16T15:06:06;14.30;99.90
34099;DHT22;20374;49.474;10.944;2024-02-16T15:08:32;14.20;99.90
34099;DHT22;20374;49.474;10.944;2024-02-16T15:10:58;14.20;99.90
34099;DHT22;20374;49.474;10.944;2024-02-16T15:13:24;14.20;99.90
34099;DHT22;20374;49.474;10.944;2024-02-16T15:15:51;14.00;99.90
34099;DHT22;20374;49.474;10.944;2024-02-16T15:18:17;14.00;99.90
34099;DHT22;20374;49.474;10.944;2024-02-16T15:20:43;13.90;99.90
34099;DHT22;20374;49.474;10.944;2024-02-16T15:23:09;13.80;99.90
34099;DHT22;20374;49.474;10.944;2024-02-16T15:25:38;13.70;99.90
34099;DHT22;20374;49.474;10.944;2024-02-16T15:28:05;13.70;99.90
34099;DHT22;20374;49.474;10.944;2024-02-16T15:30:31;13.70;99.90
34099;DHT22;20374;49.474;10.944;2024-02-16T15:32:56;13.70;99.90
34099;DHT22;20374;49.474;10.944;2024-02-16T15:35:22;13.60;99.90
34099;DHT22;20374;49.474;10.944;2024-02-16T15:37:49;13.60;99.90
34099;DHT22;20374;49.474;10.944;2024-02-16T15:40:15;13.50;99.90
34099;DHT22;20374;49.474;10.944;2024-02-16T15:42:41;13.40;99.90
34099;DHT22;20374;49.474;10.944;2024-02-16T15:45:08;13.30;99.90
34099;DHT22;20374;49.474;10.944;2024-02-16T15:47:34;13.40;99.90
34099;DHT22;20374;49.474;10.944;2024-02-16T15:50:00;13.30;99.90
34099;DHT22;20374;49.474;10.944;2024-02-16T15:52:26;13.30;99.90
34099;DHT22;20374;49.474;10.944;2024-02-16T15:54:52;13.20;99.90